Time;durP1;ratioP1;P1;durP2;ratioP2;P2;SDS_P1;SDS_P2;PMS_P1;PMS_P2;Temp;Humidity;BMP_temperature;BMP_pressure;BME280_temperature;BME280_humidity;BME280_pressure;Samples;Min_cycle;Max_cycle;Signal;HPM_P1;HPM_P2
2021/06/16 00:01:08;;;;;;;5.13;3.58;;;20.50;99.90;;;;;;5076130;28;20608;-84
2021/06/16 00:03:34;;;;;;;7.53;3.92;;;20.50;99.90;;;;;;5075823;28;20558;-84
2021/06/16 00:05:59;;;;;;;7.20;3.53;;;20.50;99.90;;;;;;5076049;28;20444;-84
2021/06/16 00:08:25;;;;;;;7.05;3.97;;;20.50;99.90;;;;;;5076169;28;20020;-84
2021/06/16 00:10:51;;;;;;;8.75;3.97;;;20.50;99.90;;;;;;5077619;28;20011;-84
2021/06/16 00:13:18;;;;;;;9.10;3.55;;;20.60;99.90;;;;;;5076877;28;20028;-86
2021/06/16 00:15:45;;;;;;;10.80;3.42;;;20.50;99.90;;;;;;5077085;28;20021;-86
2021/06/16 00:18:11;;;;;;;8.98;3.70;;;20.40;99.90;;;;;;5076232;28;20141;-86
2021/06/16 00:20:38;;;;;;;10.90;3.80;;;20.40;99.90;;;;;;5075337;28;20121;-86
2021/06/16 00:23:06;;;;;;;10.45;3.88;;;20.30;99.90;;;;;;5076312;28;20028;-87
2021/06/16 00:25:32;;;;;;;10.07;3.72;;;20.40;99.90;;;;;;5075698;28;20053;-84
2021/06/16 00:27:58;;;;;;;12.55;3.80;;;20.30;99.90;;;;;;5075608;28;20021;-84
2021/06/16 00:30:25;;;;;;;15.63;3.92;;;20.20;99.90;;;;;;5076858;28;20070;-84
2021/06/16 00:32:51;;;;;;;6.43;3.95;;;20.20;99.90;;;;;;5075530;28;20025;-84
2021/06/16 00:35:20;;;;;;;8.43;4.15;;;20.20;99.90;;;;;;5075263;28;20025;-84
2021/06/16 00:37:51;;;;;;;8.75;3.63;;;20.30;99.90;;;;;;5075240;28;20024;-84
2021/06/16 00:40:20;;;;;;;11.68;4.20;;;20.30;99.90;;;;;;5075346;28;20024;-84
2021/06/16 00:42:46;;;;;;;8.50;3.90;;;20.50;99.90;;;;;;5075223;28;20029;-84
2021/06/16 00:45:12;;;;;;;6.55;3.55;;;20.40;99.90;;;;;;5075317;28;20021;-84
2021/06/16 00:47:39;;;;;;;10.05;3.95;;;20.20;99.90;;;;;;5076271;28;20380;-84
2021/06/16 00:50:07;;;;;;;8.82;3.75;;;20.10;99.90;;;;;;5075185;28;20029;-84
2021/06/16 00:52:32;;;;;;;7.32;3.83;;;20.10;99.90;;;;;;5074610;28;20024;-84
2021/06/16 00:54:58;;;;;;;7.80;3.78;;;20.30;99.90;;;;;;5075340;28;20032;-84
2021/06/16 00:57:24;;;;;;;5.45;3.30;;;20.30;99.90;;;;;;5075014;28;20035;-84
2021/06/16 01:00:06;;;;;;;9.38;4.20;;;20.20;99.90;;;;;;5074901;28;20032;-84
2021/06/16 01:02:40;;;;;;;8.38;3.65;;;20.20;99.90;;;;;;5075141;28;20449;-84
2021/06/16 01:05:07;;;;;;;13.18;4.40;;;20.40;99.90;;;;;;5075218;28;20108;-84
2021/06/16 01:07:40;;;;;;;11.52;4.05;;;20.40;99.90;;;;;;5074553;28;20024;-84
2021/06/16 01:10:07;;;;;;;10.13;3.97;;;20.10;99.90;;;;;;5074124;28;20020;-84
2021/06/16 01:12:33;;;;;;;10.45;4.40;;;19.90;99.90;;;;;;5076115;28;20103;-84
2021/06/16 01:15:01;;;;;;;9.02;4.57;;;19.90;99.90;;;;;;5074276;28;20059;-84
2021/06/16 01:17:43;;;;;;;8.68;4.18;;;19.80;99.90;;;;;;5074538;28;20930;-84
2021/06/16 01:20:20;;;;;;;15.88;3.80;;;19.60;99.90;;;;;;5074129;28;20696;-84
2021/06/16 01:22:58;;;;;;;6.20;3.67;;;19.60;99.90;;;;;;5074073;28;20028;-84
2021/06/16 01:25:57;;;;;;;8.38;3.95;;;19.40;99.90;;;;;;5073826;28;20045;-84
2021/06/16 01:28:25;;;;;;;13.90;4.45;;;19.40;99.90;;;;;;5074479;28;20013;-84
2021/06/16 01:30:51;;;;;;;12.60;4.10;;;19.30;99.90;;;;;;5073999;28;20021;-84
2021/06/16 01:33:18;;;;;;;12.75;3.85;;;19.20;99.90;;;;;;5074648;28;20366;-84
2021/06/16 01:35:47;;;;;;;7.22;3.80;;;19.20;99.90;;;;;;5073982;28;20025;-84
2021/06/16 01:38:14;;;;;;;12.73;3.65;;;19.20;99.90;;;;;;5075362;28;20024;-84
2021/06/16 01:40:41;;;;;;;6.68;3.85;;;19.10;99.90;;;;;;5078867;28;20097;-86
2021/06/16 01:43:09;;;;;;;12.52;4.18;;;19.00;99.90;;;;;;5077380;28;20043;-86
2021/06/16 01:45:36;;;;;;;10.68;3.95;;;19.00;99.90;;;;;;5076729;28;20388;-86
2021/06/16 01:48:06;;;;;;;12.95;4.38;;;18.90;99.90;;;;;;5075492;28;20017;-86
2021/06/16 01:50:34;;;;;;;8.68;3.67;;;18.80;99.90;;;;;;5075617;28;20029;-86
2021/06/16 01:53:01;;;;;;;8.07;3.90;;;18.80;99.90;;;;;;5076321;28;20492;-86
2021/06/16 01:55:27;;;;;;;8.35;4.28;;;18.80;99.90;;;;;;5075465;28;20028;-86
2021/06/16 01:57:56;;;;;;;9.88;4.13;;;18.90;99.90;;;;;;5077071;28;20082;-86
2021/06/16 02:00:23;;;;;;;8.68;3.90;;;19.00;99.90;;;;;;5075564;28;20046;-86
2021/06/16 02:02:49;;;;;;;7.82;4.15;;;19.10;99.90;;;;;;5075697;28;20025;-86
2021/06/16 02:05:18;;;;;;;9.35;4.35;;;18.90;99.90;;;;;;5075501;28;20020;-86
2021/06/16 02:08:10;;;;;;;8.23;4.03;;;18.70;99.90;;;;;;5076372;28;20017;-86
2021/06/16 02:10:46;;;;;;;5.95;3.90;;;18.70;99.90;;;;;;5075289;28;20032;-86
2021/06/16 02:13:14;;;;;;;11.18;4.65;;;18.50;99.90;;;;;;5074141;28;20120;-86
2021/06/16 02:15:43;;;;;;;8.52;4.30;;;18.60;99.90;;;;;;5073908;28;20020;-86
2021/06/16 02:18:09;;;;;;;9.15;4.05;;;18.60;99.90;;;;;;5074339;28;20527;-86
2021/06/16 02:20:36;;;;;;;10.02;4.80;;;18.70;99.90;;;;;;5074060;28;20020;-86
2021/06/16 02:23:02;;;;;;;10.45;4.50;;;18.60;99.90;;;;;;5075391;28;20028;-86
2021/06/16 02:25:28;;;;;;;8.48;4.50;;;18.60;99.90;;;;;;5074168;28;20128;-86
2021/06/16 02:27:54;;;;;;;8.70;4.45;;;18.50;99.90;;;;;;5073160;28;20493;-86
2021/06/16 02:30:20;;;;;;;8.00;4.85;;;18.50;99.90;;;;;;5074064;28;20031;-86
2021/06/16 02:32:46;;;;;;;9.02;4.05;;;18.60;99.90;;;;;;5075701;28;20098;-87
2021/06/16 02:35:13;;;;;;;7.70;4.35;;;18.60;99.90;;;;;;5076650;28;20028;-87
2021/06/16 02:37:44;;;;;;;9.43;4.82;;;18.40;99.90;;;;;;5078440;28;20060;-87
2021/06/16 02:40:14;;;;;;;7.20;4.35;;;18.40;99.90;;;;;;5077313;28;20029;-84
2021/06/16 02:42:42;;;;;;;6.38;4.15;;;18.40;99.90;;;;;;5074348;28;20496;-84
2021/06/16 02:45:09;;;;;;;13.13;4.70;;;18.30;99.90;;;;;;5073118;28;20048;-84
2021/06/16 02:47:40;;;;;;;9.02;4.25;;;18.30;99.90;;;;;;5074751;28;20500;-84
2021/06/16 02:50:06;;;;;;;7.43;4.28;;;18.30;99.90;;;;;;5073743;28;20027;-84
2021/06/16 02:52:35;;;;;;;8.27;4.18;;;18.40;99.90;;;;;;5075360;28;20112;-86
2021/06/16 02:55:04;;;;;;;8.52;4.50;;;18.40;99.90;;;;;;5075642;28;20029;-85
2021/06/16 02:57:33;;;;;;;9.68;4.30;;;18.30;99.90;;;;;;5073263;28;20504;-85
2021/06/16 03:00:03;;;;;;;8.50;4.60;;;18.10;99.90;;;;;;5073795;28;20021;-85
2021/06/16 03:02:30;;;;;;;9.82;4.38;;;18.10;99.90;;;;;;5073307;28;20074;-85
2021/06/16 03:04:58;;;;;;;7.97;4.18;;;18.10;99.90;;;;;;5073642;28;20020;-85
2021/06/16 03:07:25;;;;;;;11.48;4.85;;;18.10;99.90;;;;;;5073204;28;20024;-86
2021/06/16 03:09:52;;;;;;;7.25;4.10;;;18.10;99.90;;;;;;5073677;28;20007;-86
2021/06/16 03:12:20;;;;;;;9.90;4.32;;;18.00;99.90;;;;;;5073665;28;20025;-86
2021/06/16 03:14:49;;;;;;;8.60;4.55;;;17.90;99.90;;;;;;5073426;28;20048;-86
2021/06/16 03:17:17;;;;;;;10.40;4.78;;;17.90;99.90;;;;;;5075939;28;20484;-86
2021/06/16 03:19:43;;;;;;;9.50;4.78;;;18.00;99.90;;;;;;5077083;28;20024;-86
2021/06/16 03:22:10;;;;;;;11.23;4.72;;;18.10;99.90;;;;;;5077813;28;20036;-86
2021/06/16 03:24:37;;;;;;;17.65;4.78;;;18.10;99.90;;;;;;5077573;28;20477;-86
2021/06/16 03:27:04;;;;;;;9.35;4.45;;;18.00;99.90;;;;;;5077201;28;20121;-86
2021/06/16 03:29:33;;;;;;;9.48;5.10;;;17.90;99.90;;;;;;5078157;28;20036;-87
2021/06/16 03:32:01;;;;;;;9.00;4.40;;;18.00;99.90;;;;;;5059973;28;20113;-87
2021/06/16 03:34:27;;;;;;;8.18;5.03;;;18.00;99.90;;;;;;5076683;28;20078;-87
2021/06/16 03:36:55;;;;;;;12.65;4.53;;;18.00;99.90;;;;;;5076529;28;20477;-87
2021/06/16 03:39:21;;;;;;;10.45;4.43;;;17.90;99.90;;;;;;5076475;28;20055;-87
2021/06/16 03:41:48;;;;;;;9.48;4.70;;;17.80;99.90;;;;;;5077521;28;20024;-87
2021/06/16 03:44:15;;;;;;;10.95;4.50;;;17.70;99.90;;;;;;5076231;28;20020;-87
2021/06/16 03:46:41;;;;;;;8.68;4.40;;;17.80;99.90;;;;;;5076197;28;20056;-87
2021/06/16 03:49:09;;;;;;;7.93;4.85;;;17.80;99.90;;;;;;5076370;28;20020;-87
2021/06/16 03:51:39;;;;;;;9.50;4.88;;;17.80;99.90;;;;;;5077621;28;20035;-87
2021/06/16 03:54:11;;;;;;;9.77;4.65;;;17.80;99.90;;;;;;5076157;28;20469;-87
2021/06/16 03:56:41;;;;;;;12.07;5.25;;;17.80;99.90;;;;;;5076214;28;20029;-87
2021/06/16 03:59:08;;;;;;;13.43;5.07;;;17.80;99.90;;;;;;5076522;28;20139;-87
2021/06/16 04:01:37;;;;;;;8.85;4.85;;;17.90;99.90;;;;;;5075977;28;20021;-87
2021/06/16 04:04:04;;;;;;;11.10;4.10;;;17.90;99.90;;;;;;5075956;28;20012;-87
2021/06/16 04:06:30;;;;;;;11.20;4.50;;;17.80;99.90;;;;;;5075262;28;20120;-87
2021/06/16 04:08:56;;;;;;;9.32;5.38;;;17.80;99.90;;;;;;5075918;28;20056;-87
2021/06/16 04:11:22;;;;;;;9.90;4.65;;;17.90;99.90;;;;;;5075218;28;20029;-87
2021/06/16 04:13:48;;;;;;;10.18;4.93;;;18.10;99.90;;;;;;5075855;28;20033;-87
2021/06/16 04:16:14;;;;;;;9.90;4.68;;;18.20;99.90;;;;;;5076689;28;20550;-87
2021/06/16 04:18:42;;;;;;;11.43;4.80;;;18.30;99.90;;;;;;5075817;28;20452;-86
2021/06/16 04:21:08;;;;;;;8.50;5.03;;;18.10;99.90;;;;;;5076755;28;20035;-86
2021/06/16 04:23:33;;;;;;;10.98;5.47;;;18.10;99.90;;;;;;5076746;28;20029;-87
2021/06/16 04:25:59;;;;;;;13.95;5.35;;;18.20;99.90;;;;;;5077138;28;20040;-87
2021/06/16 04:28:25;;;;;;;17.65;5.35;;;18.30;99.90;;;;;;5077135;28;20588;-87
2021/06/16 04:30:50;;;;;;;8.88;5.10;;;18.40;99.90;;;;;;5077432;28;20177;-87
2021/06/16 04:33:16;;;;;;;12.35;4.97;;;18.30;99.90;;;;;;5077986;28;20576;-87
2021/06/16 04:35:42;;;;;;;12.05;4.95;;;18.20;99.90;;;;;;5075952;28;20023;-87
2021/06/16 04:38:08;;;;;;;8.82;4.45;;;18.20;99.90;;;;;;5076310;28;20071;-86
2021/06/16 04:40:33;;;;;;;10.38;4.47;;;18.50;99.90;;;;;;5077446;28;20028;-87
2021/06/16 04:42:59;;;;;;;10.57;4.82;;;18.50;99.90;;;;;;5076433;28;20082;-86
2021/06/16 04:45:25;;;;;;;9.38;4.18;;;18.60;99.90;;;;;;5079315;28;20020;-86
2021/06/16 04:47:50;;;;;;;10.52;4.68;;;18.70;99.90;;;;;;5083074;28;20024;-86
2021/06/16 04:50:17;;;;;;;7.70;4.32;;;18.80;99.90;;;;;;5078903;28;20047;-86
2021/06/16 04:52:43;;;;;;;10.40;4.63;;;19.00;99.90;;;;;;5079821;28;20106;-86
2021/06/16 04:55:11;;;;;;;10.38;4.60;;;18.90;99.90;;;;;;5080075;28;20021;-86
2021/06/16 04:57:38;;;;;;;13.30;4.85;;;18.90;99.90;;;;;;5077140;28;20032;-86
2021/06/16 05:00:09;;;;;;;11.13;4.90;;;19.10;99.90;;;;;;5077145;28;20021;-83
2021/06/16 05:02:35;;;;;;;10.48;4.60;;;19.10;99.90;;;;;;5077810;28;20066;-83
2021/06/16 05:05:00;;;;;;;8.63;4.30;;;19.20;99.90;;;;;;5077421;28;20029;-83
2021/06/16 05:07:26;;;;;;;9.15;4.63;;;19.30;99.90;;;;;;5077303;28;20515;-83
2021/06/16 05:09:51;;;;;;;10.02;4.82;;;19.30;99.90;;;;;;5077793;28;20078;-83
2021/06/16 05:12:17;;;;;;;9.15;4.72;;;19.30;99.90;;;;;;5080506;28;20021;-83
2021/06/16 05:14:43;;;;;;;12.15;4.63;;;19.50;99.90;;;;;;5079834;28;20094;-84
2021/06/16 05:17:08;;;;;;;9.70;4.18;;;19.60;99.90;;;;;;5077258;28;20039;-84
2021/06/16 05:19:34;;;;;;;9.18;4.38;;;19.80;99.90;;;;;;5079649;28;20021;-83
2021/06/16 05:22:11;;;;;;;12.10;4.63;;;19.90;99.90;;;;;;5076591;28;20020;-83
2021/06/16 05:24:37;;;;;;;14.23;4.47;;;19.90;99.90;;;;;;5078882;28;20104;-84
2021/06/16 05:27:03;;;;;;;10.48;4.10;;;19.80;99.90;;;;;;5061289;28;20040;-84
2021/06/16 05:29:29;;;;;;;8.65;3.92;;;20.00;99.90;;;;;;5076438;28;20381;-84
2021/06/16 05:31:55;;;;;;;10.38;4.45;;;20.10;99.90;;;;;;5076926;28;20111;-84
2021/06/16 05:34:20;;;;;;;13.73;4.78;;;20.20;99.90;;;;;;5078325;28;20028;-83
2021/06/16 05:36:46;;;;;;;11.73;4.13;;;20.30;99.90;;;;;;5077942;28;20036;-82
2021/06/16 05:39:11;;;;;;;10.32;4.22;;;20.30;99.90;;;;;;5072657;28;20500;-83
2021/06/16 05:41:37;;;;;;;12.30;4.53;;;20.40;99.90;;;;;;5071337;28;20078;-84
2021/06/16 05:44:03;;;;;;;12.55;4.82;;;20.50;99.90;;;;;;5079399;28;20032;-83
2021/06/16 05:46:29;;;;;;;11.98;4.65;;;20.50;99.90;;;;;;5067631;28;20021;-83
2021/06/16 05:48:55;;;;;;;13.80;4.68;;;20.50;99.90;;;;;;5076377;28;20070;-82
2021/06/16 05:51:20;;;;;;;10.45;4.65;;;20.50;99.90;;;;;;5076193;28;20503;-82
2021/06/16 05:53:46;;;;;;;10.82;4.32;;;20.40;99.90;;;;;;5073301;28;20111;-81
2021/06/16 05:56:12;;;;;;;10.45;4.65;;;20.60;99.90;;;;;;5076962;28;20032;-81
2021/06/16 05:58:37;;;;;;;15.13;4.75;;;20.60;99.90;;;;;;5076286;28;20029;-80
2021/06/16 06:01:03;;;;;;;13.25;5.22;;;20.70;99.90;;;;;;5075157;28;20021;-80
2021/06/16 06:03:29;;;;;;;10.10;4.60;;;20.80;99.90;;;;;;5074164;28;20017;-82
2021/06/16 06:05:55;;;;;;;12.63;4.85;;;20.90;99.90;;;;;;5072030;28;20503;-80
2021/06/16 06:08:20;;;;;;;12.52;4.57;;;20.80;99.90;;;;;;5071383;28;20036;-81
2021/06/16 06:10:46;;;;;;;11.50;4.47;;;20.90;99.90;;;;;;5067231;28;20752;-81
2021/06/16 06:13:12;;;;;;;13.20;4.72;;;21.00;99.90;;;;;;5074963;28;20397;-83
2021/06/16 06:15:37;;;;;;;12.65;4.90;;;21.20;99.90;;;;;;5074589;28;20027;-80
2021/06/16 06:18:03;;;;;;;14.00;5.18;;;21.30;99.90;;;;;;5070621;28;20115;-81
2021/06/16 06:20:29;;;;;;;12.68;4.70;;;21.30;99.90;;;;;;5069172;28;20021;-84
2021/06/16 06:22:56;;;;;;;11.18;4.90;;;21.30;99.90;;;;;;5073062;28;20040;-80
2021/06/16 06:25:22;;;;;;;11.05;4.72;;;21.40;99.90;;;;;;5060123;28;20025;-80
2021/06/16 06:27:48;;;;;;;13.45;5.20;;;21.80;99.90;;;;;;5075420;28;20028;-81
2021/06/16 06:30:14;;;;;;;10.32;4.60;;;22.00;99.90;;;;;;5068586;28;20021;-81
2021/06/16 06:32:41;;;;;;;11.85;4.90;;;22.00;99.90;;;;;;5074639;28;20075;-84
2021/06/16 06:35:08;;;;;;;15.85;4.68;;;22.00;99.90;;;;;;5057026;28;20560;-84
2021/06/16 06:37:34;;;;;;;15.27;4.60;;;21.80;99.90;;;;;;5065887;28;20020;-81
2021/06/16 06:39:59;;;;;;;9.50;4.13;;;22.50;99.90;;;;;;5070064;28;20100;-80
2021/06/16 06:42:25;;;;;;;8.48;3.83;;;24.10;97.60;;;;;;5071358;28;20111;-80
2021/06/16 06:44:51;;;;;;;10.27;4.20;;;25.50;94.20;;;;;;5067397;28;20013;-80
2021/06/16 06:47:16;;;;;;;8.68;3.88;;;25.90;92.90;;;;;;5067068;28;20024;-80
2021/06/16 06:49:42;;;;;;;10.75;4.00;;;27.40;91.00;;;;;;5068014;28;20392;-80
2021/06/16 06:52:08;;;;;;;9.90;3.65;;;28.80;85.90;;;;;;5071787;28;20052;-81
2021/06/16 06:54:35;;;;;;;12.30;3.50;;;29.60;78.90;;;;;;5073802;28;20025;-80
2021/06/16 06:57:02;;;;;;;7.68;3.80;;;30.40;75.80;;;;;;5068311;28;20036;-81
2021/06/16 06:59:28;;;;;;;10.07;3.45;;;31.50;70.70;;;;;;5073366;28;20575;-80
2021/06/16 07:01:53;;;;;;;7.47;3.60;;;32.10;68.00;;;;;;5069127;28;20134;-80
2021/06/16 07:04:19;;;;;;;8.10;3.42;;;32.20;63.90;;;;;;5063393;28;20123;-80
2021/06/16 07:06:45;;;;;;;8.75;3.13;;;33.20;61.10;;;;;;5067832;28;20055;-80
2021/06/16 07:09:10;;;;;;;7.57;3.40;;;33.30;59.20;;;;;;5069197;28;20077;-79
2021/06/16 07:11:36;;;;;;;8.63;3.90;;;32.90;59.50;;;;;;5070064;28;20032;-80
2021/06/16 07:14:02;;;;;;;8.93;3.10;;;32.30;59.50;;;;;;5074918;28;20037;-80
2021/06/16 07:16:27;;;;;;;9.80;3.38;;;32.10;58.70;;;;;;5073238;28;20028;-79
2021/06/16 07:18:53;;;;;;;7.20;3.20;;;32.30;59.60;;;;;;5074691;28;20035;-80
2021/06/16 07:21:19;;;;;;;7.82;3.65;;;31.50;60.60;;;;;;5074948;28;20959;-81
2021/06/16 07:23:44;;;;;;;9.50;3.75;;;31.70;59.50;;;;;;5075748;28;20029;-80
2021/06/16 07:26:10;;;;;;;11.70;3.58;;;31.20;59.70;;;;;;5072845;28;20497;-80
2021/06/16 07:28:36;;;;;;;7.40;3.40;;;31.40;60.10;;;;;;5074166;28;20085;-80
2021/06/16 07:31:02;;;;;;;7.47;3.83;;;31.80;59.50;;;;;;5075713;28;20028;-80
2021/06/16 07:33:28;;;;;;;8.48;3.17;;;32.00;58.80;;;;;;5070739;28;20103;-80
2021/06/16 07:35:53;;;;;;;12.30;3.67;;;32.40;58.40;;;;;;5062971;28;20384;-80
2021/06/16 07:38:20;;;;;;;9.05;3.20;;;33.00;56.20;;;;;;5075565;28;20021;-81
2021/06/16 07:40:45;;;;;;;9.88;3.58;;;33.10;57.10;;;;;;5073498;28;20123;-81
2021/06/16 07:43:11;;;;;;;8.00;3.72;;;33.40;56.70;;;;;;5070857;28;20103;-81
2021/06/16 07:45:37;;;;;;;8.45;3.30;;;34.10;55.00;;;;;;5070459;28;20024;-80
2021/06/16 07:48:03;;;;;;;9.98;3.53;;;33.80;54.80;;;;;;5069778;28;20025;-81
2021/06/16 07:50:29;;;;;;;7.07;3.58;;;34.00;55.70;;;;;;5075110;28;20097;-80
2021/06/16 07:52:55;;;;;;;6.35;3.30;;;33.20;54.80;;;;;;5076697;28;20029;-81
2021/06/16 07:55:21;;;;;;;9.25;3.45;;;32.10;57.20;;;;;;5074241;28;20381;-81
2021/06/16 07:57:46;;;;;;;5.93;3.40;;;32.10;57.30;;;;;;5068638;28;20035;-81
2021/06/16 08:00:13;;;;;;;6.63;3.20;;;31.80;57.60;;;;;;5074043;28;20029;-81
2021/06/16 08:02:40;;;;;;;6.80;3.95;;;31.80;58.20;;;;;;5062912;28;20025;-81
2021/06/16 08:05:06;;;;;;;6.97;3.78;;;32.10;56.70;;;;;;5075402;28;20084;-81
2021/06/16 08:07:32;;;;;;;7.07;3.40;;;32.30;56.40;;;;;;5070088;28;21255;-81
2021/06/16 08:09:58;;;;;;;10.85;3.92;;;32.60;56.20;;;;;;5075202;28;20025;-82
2021/06/16 08:12:23;;;;;;;6.70;3.28;;;32.80;55.60;;;;;;5077200;28;20033;-81
2021/06/16 08:14:49;;;;;;;8.48;3.88;;;32.70;56.30;;;;;;5063884;28;20021;-82
2021/06/16 08:17:15;;;;;;;12.65;3.45;;;32.30;57.00;;;;;;5069832;28;20108;-82
2021/06/16 08:19:41;;;;;;;11.73;3.80;;;32.80;58.00;;;;;;5057470;28;20038;-81
2021/06/16 08:22:10;;;;;;;11.93;3.88;;;32.40;55.90;;;;;;5071807;28;20031;-82
2021/06/16 08:24:36;;;;;;;10.40;3.80;;;32.00;57.10;;;;;;5076532;28;20016;-82
2021/06/16 08:27:01;;;;;;;19.88;3.70;;;31.90;57.70;;;;;;5076433;28;20051;-82
2021/06/16 08:29:27;;;;;;;12.35;3.70;;;32.00;57.10;;;;;;5076578;28;20066;-81
2021/06/16 08:31:53;;;;;;;8.05;3.53;;;32.90;56.30;;;;;;5076711;28;20035;-82
2021/06/16 08:34:18;;;;;;;4.13;2.92;;;33.80;55.20;;;;;;5062142;28;20035;-81
2021/06/16 08:36:45;;;;;;;7.15;4.03;;;34.00;55.50;;;;;;5073972;28;20028;-82
2021/06/16 08:39:11;;;;;;;8.52;4.20;;;33.30;55.20;;;;;;5072028;28;20024;-82
2021/06/16 08:41:38;;;;;;;7.05;3.83;;;32.80;56.90;;;;;;5075199;28;20028;-82
2021/06/16 08:44:06;;;;;;;10.82;4.10;;;32.10;57.30;;;;;;5070757;28;20477;-81
2021/06/16 08:46:32;;;;;;;9.88;3.92;;;31.80;57.40;;;;;;5065932;28;20111;-82
2021/06/16 08:48:58;;;;;;;6.75;3.47;;;32.30;57.20;;;;;;5071963;28;20023;-82
2021/06/16 08:51:23;;;;;;;9.90;3.90;;;32.30;57.30;;;;;;5067289;28;20390;-81
2021/06/16 08:53:49;;;;;;;10.50;3.80;;;33.40;56.10;;;;;;5068943;28;20033;-81
2021/06/16 08:56:15;;;;;;;6.30;3.90;;;34.00;54.50;;;;;;5063673;28;20485;-81
2021/06/16 08:58:42;;;;;;;8.30;3.72;;;32.80;55.80;;;;;;5063681;28;20041;-82
2021/06/16 09:01:10;;;;;;;5.82;3.53;;;32.60;56.30;;;;;;5070670;28;20024;-81
2021/06/16 09:03:36;;;;;;;6.75;3.88;;;33.40;55.40;;;;;;5072335;28;20043;-81
2021/06/16 09:06:05;;;;;;;7.63;4.40;;;33.50;55.20;;;;;;5055287;28;20480;-81
2021/06/16 09:08:30;;;;;;;6.45;4.05;;;33.70;55.00;;;;;;5062903;28;20489;-81
2021/06/16 09:10:57;;;;;;;8.95;3.80;;;33.30;55.20;;;;;;5061425;28;20071;-81
2021/06/16 09:13:31;;;;;;;7.95;4.38;;;32.90;56.50;;;;;;5050105;28;20419;-81
2021/06/16 09:15:59;;;;;;;8.80;3.85;;;32.30;57.00;;;;;;5065948;28;20633;-81
2021/06/16 09:18:25;;;;;;;10.45;4.20;;;32.10;57.70;;;;;;5066549;28;20024;-81
2021/06/16 09:20:58;;;;;;;9.38;3.63;;;32.80;56.20;;;;;;5062817;28;20492;-81
2021/06/16 09:23:26;;;;;;;8.32;3.90;;;33.60;56.30;;;;;;5081609;28;20016;-82
2021/06/16 09:26:13;;;;;;;8.93;4.35;;;33.90;55.60;;;;;;5066765;28;20067;-81
2021/06/16 09:28:43;;;;;;;6.75;3.83;;;33.10;55.50;;;;;;5066570;28;20430;-82
2021/06/16 09:31:11;;;;;;;11.45;4.30;;;33.70;55.00;;;;;;5059115;28;20056;-82
2021/06/16 09:33:37;;;;;;;10.25;4.07;;;33.10;56.10;;;;;;5065445;28;20033;-81
2021/06/16 09:36:15;;;;;;;4.57;4.18;;;32.90;56.30;;;;;;5063905;28;20030;-81
2021/06/16 09:38:45;;;;;;;6.68;4.20;;;32.90;57.10;;;;;;5069360;28;20127;-82
2021/06/16 09:41:12;;;;;;;7.45;4.50;;;33.50;56.70;;;;;;5048523;28;20430;-81
2021/06/16 09:43:39;;;;;;;9.02;4.13;;;33.60;55.20;;;;;;5068900;28;20390;-81
2021/06/16 09:46:07;;;;;;;9.35;4.75;;;31.80;58.60;;;;;;5071163;28;20373;-80
2021/06/16 09:48:35;;;;;;;11.48;4.78;;;31.80;58.30;;;;;;5072006;28;20089;-80
2021/06/16 09:51:20;;;;;;;8.15;4.03;;;31.90;59.00;;;;;;5072130;28;20069;-80
2021/06/16 09:53:56;;;;;;;7.32;4.13;;;32.40;57.40;;;;;;5069001;28;20068;-81
2021/06/16 09:56:22;;;;;;;7.57;4.85;;;32.70;57.50;;;;;;5067700;28;20039;-80
2021/06/16 09:58:48;;;;;;;10.13;4.40;;;32.90;57.10;;;;;;5066974;28;20090;-80
2021/06/16 10:01:14;;;;;;;5.93;4.32;;;33.50;57.70;;;;;;5060470;28;20032;-80
2021/06/16 10:03:41;;;;;;;8.43;4.70;;;32.80;57.70;;;;;;5056630;28;20025;-86
2021/06/16 10:06:10;;;;;;;6.30;4.47;;;32.20;58.50;;;;;;5048196;28;20467;-87
2021/06/16 10:08:47;;;;;;;9.05;4.40;;;33.20;57.90;;;;;;5062568;28;20063;-83
2021/06/16 10:11:19;;;;;;;10.68;4.28;;;34.40;56.10;;;;;;5069251;28;20173;-83
2021/06/16 10:13:45;;;;;;;7.68;4.85;;;34.90;55.50;;;;;;5070001;28;20095;-83
2021/06/16 10:16:12;;;;;;;11.20;4.95;;;34.30;55.30;;;;;;5068157;28;20024;-85
2021/06/16 10:18:49;;;;;;;11.35;4.50;;;34.30;55.40;;;;;;5073331;28;20025;-87
2021/06/16 10:21:16;;;;;;;9.25;4.45;;;34.10;55.30;;;;;;5059092;28;20025;-88
2021/06/16 10:23:43;;;;;;;9.10;5.50;;;34.30;55.70;;;;;;5064268;28;20539;-88
2021/06/16 10:26:26;;;;;;;8.32;5.25;;;33.90;56.70;;;;;;5064507;28;20040;-88
2021/06/16 10:28:58;;;;;;;9.88;5.50;;;33.40;57.00;;;;;;5067310;28;20471;-88
2021/06/16 10:31:35;;;;;;;7.13;4.72;;;33.80;56.40;;;;;;5070077;28;20405;-88
2021/06/16 10:34:01;;;;;;;6.72;4.97;;;33.80;56.50;;;;;;5073488;28;20047;-88
2021/06/16 10:36:28;;;;;;;10.65;5.18;;;34.30;55.70;;;;;;5075190;28;20024;-88
2021/06/16 10:39:00;;;;;;;6.38;5.03;;;33.60;56.50;;;;;;5076626;28;20684;-88
2021/06/16 10:41:40;;;;;;;5.50;4.57;;;32.10;58.60;;;;;;5075744;28;20108;-87
2021/06/16 10:44:20;;;;;;;9.65;4.70;;;31.80;60.30;;;;;;5076951;28;20504;-88
2021/06/16 10:46:55;;;;;;;7.50;4.65;;;32.40;58.60;;;;;;5074205;28;20047;-88
2021/06/16 10:49:36;;;;;;;7.93;4.95;;;33.50;57.70;;;;;;5076542;28;20060;-88
2021/06/16 10:52:03;;;;;;;12.30;5.20;;;33.80;56.60;;;;;;5077181;28;20039;-87
2021/06/16 10:54:29;;;;;;;7.68;4.57;;;34.20;56.00;;;;;;5076415;28;20063;-88
2021/06/16 10:57:10;;;;;;;11.25;4.47;;;33.80;56.70;;;;;;5076638;28;20389;-88
2021/06/16 10:59:46;;;;;;;5.70;4.50;;;33.50;57.50;;;;;;5076044;28;20115;-88
2021/06/16 11:02:13;;;;;;;7.05;4.70;;;32.20;59.60;;;;;;5076487;28;20056;-88
2021/06/16 11:04:40;;;;;;;5.13;4.07;;;31.70;61.00;;;;;;5078474;28;20031;-88
2021/06/16 11:07:32;;;;;;;5.00;3.90;;;31.80;61.20;;;;;;5076368;28;20027;-87
2021/06/16 11:10:07;;;;;;;7.22;4.43;;;32.00;61.10;;;;;;5076167;28;20420;-87
2021/06/16 11:12:41;;;;;;;4.32;3.60;;;32.50;56.70;;;;;;5075499;28;20036;-88
2021/06/16 11:15:18;;;;;;;6.22;4.18;;;33.80;56.10;;;;;;5056550;28;20049;-86
2021/06/16 11:17:45;;;;;;;7.85;4.75;;;33.40;56.90;;;;;;5056998;28;20063;-85
2021/06/16 11:20:20;;;;;;;14.88;4.00;;;33.40;58.10;;;;;;5060001;28;20012;-86
2021/06/16 11:22:49;;;;;;;8.40;4.38;;;33.80;56.60;;;;;;5070150;28;20020;-85
2021/06/16 11:25:18;;;;;;;7.07;3.55;;;33.90;55.40;;;;;;5073053;28;20139;-86
2021/06/16 11:27:52;;;;;;;9.02;3.72;;;33.70;55.80;;;;;;5072009;28;20036;-85
2021/06/16 11:31:01;;;;;;;4.57;3.60;;;33.30;55.60;;;;;;5073112;28;20002;-85
2021/06/16 11:33:33;;;;;;;9.65;3.50;;;33.80;54.80;;;;;;5055997;28;20525;-86
2021/06/16 11:36:01;;;;;;;6.43;3.67;;;34.90;53.60;;;;;;5057087;28;20096;-86
2021/06/16 11:39:06;;;;;;;7.78;4.10;;;35.50;52.60;;;;;;5055704;28;20032;-86
2021/06/16 11:41:32;;;;;;;6.03;3.80;;;36.00;52.60;;;;;;5051811;28;20037;-86
2021/06/16 11:44:10;;;;;;;6.38;4.00;;;35.80;52.80;;;;;;5056016;28;20025;-86
2021/06/16 11:46:41;;;;;;;5.63;3.50;;;35.80;51.70;;;;;;5055672;28;20046;-86
2021/06/16 11:49:23;;;;;;;6.25;3.97;;;36.70;50.70;;;;;;5055770;28;20482;-86
2021/06/16 11:51:55;;;;;;;11.18;4.28;;;35.30;52.80;;;;;;5056912;28;20108;-86
2021/06/16 11:54:36;;;;;;;5.32;3.53;;;35.30;52.70;;;;;;5055924;28;20033;-86
2021/06/16 11:57:02;;;;;;;7.07;3.43;;;35.90;52.20;;;;;;5055544;28;20021;-86
2021/06/16 11:59:42;;;;;;;4.10;3.42;;;35.00;52.10;;;;;;5055733;28;20025;-86
2021/06/16 12:02:22;;;;;;;9.45;3.40;;;34.20;53.10;;;;;;5055206;28;20025;-86
2021/06/16 12:05:09;;;;;;;6.80;3.85;;;33.90;54.80;;;;;;5056720;28;20017;-86
2021/06/16 12:07:44;;;;;;;4.18;3.65;;;34.40;54.20;;;;;;5056642;28;20024;-86
2021/06/16 12:10:11;;;;;;;7.43;3.80;;;34.50;53.00;;;;;;5057579;28;20017;-85
2021/06/16 12:12:52;;;;;;;5.18;3.28;;;34.00;53.80;;;;;;5074002;28;20074;-85
2021/06/16 12:15:20;;;;;;;4.83;3.33;;;34.00;54.90;;;;;;5056563;28;20474;-86
2021/06/16 12:18:06;;;;;;;3.95;3.45;;;33.60;54.10;;;;;;5055645;28;20390;-86
2021/06/16 12:20:41;;;;;;;5.38;4.07;;;34.20;54.00;;;;;;5055647;28;20021;-86
2021/06/16 12:23:21;;;;;;;5.88;3.78;;;33.80;54.50;;;;;;5065296;28;20449;-85
2021/06/16 12:25:47;;;;;;;7.18;3.50;;;34.30;54.40;;;;;;5075138;28;20397;-85
2021/06/16 12:28:15;;;;;;;7.20;3.65;;;34.20;53.40;;;;;;5075489;28;20025;-86
2021/06/16 12:30:44;;;;;;;7.65;3.33;;;35.10;52.10;;;;;;5075107;28;20028;-85
2021/06/16 12:33:18;;;;;;;6.85;3.85;;;35.30;52.00;;;;;;5075251;28;20028;-86
2021/06/16 12:38:42;;;;;;;6.97;3.65;;;33.40;54.50;;;;;;5076876;28;20149;-85
2021/06/16 12:41:31;;;;;;;5.60;3.30;;;32.80;55.40;;;;;;5076309;28;20112;-85
2021/06/16 12:44:26;;;;;;;6.50;3.72;;;34.20;54.10;;;;;;5075091;28;20381;-85
2021/06/16 12:47:02;;;;;;;5.88;3.35;;;34.60;52.90;;;;;;5074962;28;20024;-85
2021/06/16 12:49:31;;;;;;;7.57;3.20;;;34.30;53.80;;;;;;5073931;28;20051;-85
2021/06/16 12:52:02;;;;;;;6.22;2.92;;;34.00;54.50;;;;;;5075101;28;20032;-85
2021/06/16 12:54:36;;;;;;;7.07;3.35;;;34.80;52.80;;;;;;5075045;28;20052;-85